Time;durP1;ratioP1;P1;durP2;ratioP2;P2;SDS_P1;SDS_P2;PMS_P1;PMS_P2;Temp;Humidity;BMP_temperature;BMP_pressure;BME280_temperature;BME280_humidity;BME280_pressure;Samples;Min_cycle;Max_cycle;Signal;HPM_P1;HPM_P2
2022/08/06 00:00:11;;;;;;;5.82;1.85;;;;;;;12.74;67.51;102514.06;5019690;28;20033;-57
2022/08/06 00:02:36;;;;;;;6.63;2.08;;;;;;;12.62;67.84;102516.88;5022392;28;20057;-56
2022/08/06 00:05:02;;;;;;;5.97;1.88;;;;;;;12.60;68.48;102518.84;5015157;28;20059;-56
2022/08/06 00:07:28;;;;;;;5.90;2.00;;;;;;;12.63;68.60;102517.72;5020626;28;20030;-57
2022/08/06 00:09:53;;;;;;;5.15;1.83;;;;;;;12.68;68.50;102520.78;5019971;28;20026;-58
2022/08/06 00:12:18;;;;;;;4.15;2.08;;;;;;;12.66;68.24;102525.44;5023040;28;20060;-56
2022/08/06 00:14:43;;;;;;;5.68;1.70;;;;;;;12.49;68.10;102524.34;5019382;28;20037;-56
2022/08/06 00:17:09;;;;;;;6.13;1.95;;;;;;;12.49;68.25;102528.84;5015158;28;20034;-57
2022/08/06 00:19:34;;;;;;;5.53;2.00;;;;;;;12.51;68.08;102529.53;5018654;28;20033;-56
2022/08/06 00:21:59;;;;;;;4.47;1.88;;;;;;;12.47;68.50;102531.66;5017966;28;20422;-56
2022/08/06 00:24:25;;;;;;;5.05;2.00;;;;;;;12.39;68.12;102531.47;5023837;28;20055;-54
2022/08/06 00:26:50;;;;;;;7.68;1.90;;;;;;;12.44;68.52;102539.94;5015472;28;20494;-55
2022/08/06 00:29:15;;;;;;;6.95;2.35;;;;;;;12.57;69.01;102540.47;5017317;28;20022;-58
2022/08/06 00:31:41;;;;;;;8.02;2.20;;;;;;;12.68;69.83;102542.97;5019940;28;20036;-59
2022/08/06 00:34:06;;;;;;;4.32;1.85;;;;;;;12.51;69.25;102543.69;5013932;28;20037;-58
2022/08/06 00:36:32;;;;;;;7.38;1.90;;;;;;;12.50;68.88;102547.34;5018870;28;20037;-57
2022/08/06 00:39:03;;;;;;;7.13;2.20;;;;;;;12.41;69.17;102540.19;5016929;28;20022;-58
2022/08/06 00:41:30;;;;;;;6.03;2.13;;;;;;;12.39;69.18;102552.81;5017050;28;20033;-56
2022/08/06 00:43:56;;;;;;;5.90;2.10;;;;;;;12.41;69.41;102550.84;5016075;28;20030;-58
2022/08/06 00:46:25;;;;;;;5.75;2.17;;;;;;;12.43;69.24;102554.19;5017609;28;20394;-58
2022/08/06 00:48:50;;;;;;;5.97;1.95;;;;;;;12.41;69.15;102549.00;5010800;28;20392;-57
2022/08/06 00:51:15;;;;;;;4.55;1.90;;;;;;;12.43;69.10;102551.53;5020231;28;20022;-57
2022/08/06 00:53:41;;;;;;;9.40;2.05;;;;;;;12.38;68.81;102549.28;5013495;28;20033;-57
2022/08/06 00:56:06;;;;;;;4.15;1.70;;;;;;;12.33;68.65;102556.03;5017251;28;20025;-58
2022/08/06 00:58:32;;;;;;;6.15;2.08;;;;;;;12.35;68.71;102552.25;5022174;28;20037;-57
2022/08/06 01:00:57;;;;;;;6.43;2.45;;;;;;;12.32;69.12;102562.34;5013607;28;20115;-58
2022/08/06 01:03:22;;;;;;;4.53;2.22;;;;;;;12.29;69.50;102567.94;5014217;28;20033;-58
2022/08/06 01:05:48;;;;;;;7.38;2.10;;;;;;;12.15;70.15;102579.03;5019416;28;20108;-56
2022/08/06 01:08:13;;;;;;;6.55;2.45;;;;;;;12.23;70.47;102568.50;5021210;28;20056;-58
2022/08/06 01:10:39;;;;;;;6.50;1.90;;;;;;;12.12;70.77;102565.97;5018073;28;20469;-58
2022/08/06 01:13:04;;;;;;;5.75;2.20;;;;;;;12.18;71.05;102560.09;5020680;28;20069;-57
2022/08/06 01:15:32;;;;;;;7.05;2.20;;;;;;;12.13;71.31;102572.97;5022162;28;20100;-58
2022/08/06 01:18:03;;;;;;;6.40;2.20;;;;;;;12.14;71.49;102582.63;5021500;28;20486;-58
2022/08/06 01:20:44;;;;;;;7.72;2.00;;;;;;;12.16;71.64;102575.38;5022225;28;20026;-58
2022/08/06 01:23:15;;;;;;;4.70;1.98;;;;;;;12.14;71.67;102575.50;5023081;28;20462;-57
2022/08/06 01:26:16;;;;;;;5.65;2.05;;;;;;;12.21;71.38;102583.78;5016366;28;20438;-57
2022/08/06 01:29:01;;;;;;;6.70;2.40;;;;;;;12.17;71.38;102593.03;5024167;28;20021;-57
2022/08/06 01:31:52;;;;;;;5.47;2.03;;;;;;;12.12;70.46;102585.44;5023201;28;20018;-57
2022/08/06 01:34:27;;;;;;;7.90;2.42;;;;;;;12.15;70.96;102587.03;5024481;28;20041;-56
2022/08/06 01:37:17;;;;;;;8.63;2.40;;;;;;;12.07;71.34;102588.53;5020316;28;20080;-57
2022/08/06 01:39:46;;;;;;;8.32;2.63;;;;;;;12.10;72.01;102598.06;5019022;28;20477;-56
2022/08/06 01:42:15;;;;;;;7.07;2.70;;;;;;;12.12;72.42;102605.91;5021116;28;20478;-59
2022/08/06 01:44:43;;;;;;;6.55;2.83;;;;;;;12.10;72.65;102598.06;5020417;28;20024;-57
2022/08/06 01:47:12;;;;;;;8.83;2.70;;;;;;;12.07;73.02;102596.50;5017506;28;20029;-56
2022/08/06 01:49:40;;;;;;;10.20;2.67;;;;;;;12.12;72.70;102595.25;5020041;28;20119;-56
2022/08/06 01:52:07;;;;;;;7.60;2.40;;;;;;;12.07;72.61;102587.69;5014984;28;20160;-57
2022/08/06 01:54:37;;;;;;;7.80;2.42;;;;;;;11.98;72.36;102586.69;5022549;28;20108;-57
2022/08/06 01:57:04;;;;;;;8.05;2.65;;;;;;;11.95;72.13;102586.97;5022445;28;20022;-57
2022/08/06 01:59:37;;;;;;;4.78;2.33;;;;;;;11.97;71.90;102595.66;5028516;28;20037;-58
2022/08/06 02:02:07;;;;;;;6.57;2.15;;;;;;;11.92;71.76;102592.56;5017863;28;20021;-58
2022/08/06 02:04:40;;;;;;;6.25;2.40;;;;;;;11.84;71.17;102592.38;5024699;28;20145;-57
2022/08/06 02:07:09;;;;;;;6.45;2.28;;;;;;;11.75;70.99;102593.19;5014850;28;20025;-57
2022/08/06 02:09:38;;;;;;;6.30;2.63;;;;;;;11.80;71.16;102588.31;5023443;28;20119;-58
2022/08/06 02:12:07;;;;;;;7.05;3.22;;;;;;;11.79;71.81;102587.47;5014202;28;20018;-57
2022/08/06 02:14:45;;;;;;;8.63;2.92;;;;;;;11.84;72.39;102581.75;5025268;28;20049;-58
2022/08/06 02:17:13;;;;;;;7.50;2.22;;;;;;;11.71;71.78;102589.94;5021510;28;20683;-56
2022/08/06 02:19:42;;;;;;;4.25;2.25;;;;;;;11.67;71.67;102593.03;5021940;28;20033;-58
2022/08/06 02:22:08;;;;;;;4.95;2.25;;;;;;;11.65;71.50;102590.50;5021519;28;20083;-58
2022/08/06 02:24:36;;;;;;;6.63;2.60;;;;;;;11.60;71.69;102592.72;5019126;28;20026;-58
2022/08/06 02:27:02;;;;;;;6.55;2.60;;;;;;;11.70;72.07;102603.38;5022641;28;20049;-58
2022/08/06 02:29:29;;;;;;;12.68;3.22;;;;;;;11.73;72.61;102598.63;5019124;28;20026;-59
2022/08/06 02:31:55;;;;;;;8.32;3.05;;;;;;;11.73;73.09;102598.63;5019385;28;20086;-57
2022/08/06 02:34:21;;;;;;;4.55;2.50;;;;;;;11.68;72.66;102600.03;5016067;28;20128;-58
2022/08/06 02:36:55;;;;;;;7.47;2.40;;;;;;;11.72;72.65;102601.44;5018152;28;20048;-58
2022/08/06 02:39:37;;;;;;;9.90;3.25;;;;;;;11.67;72.40;102601.00;5019718;28;20089;-58
2022/08/06 02:42:11;;;;;;;5.10;2.78;;;;;;;11.63;72.87;102600.44;5020327;28;20032;-58
2022/08/06 02:45:00;;;;;;;6.30;2.85;;;;;;;11.66;73.09;102600.16;5015268;28;20100;-59
2022/08/06 02:47:38;;;;;;;11.18;2.80;;;;;;;11.71;73.13;102586.44;5017524;28;20486;-58
2022/08/06 02:50:05;;;;;;;7.68;2.38;;;;;;;11.69;73.11;102591.06;5020698;28;20626;-58
2022/08/06 02:52:57;;;;;;;5.85;2.25;;;;;;;11.74;73.24;102583.50;5021036;28;21055;-58
2022/08/06 02:55:28;;;;;;;4.22;2.40;;;;;;;11.49;72.52;102587.47;5008377;28;20410;-59
2022/08/06 02:58:04;;;;;;;4.30;2.25;;;;;;;11.42;71.99;102594.31;5018691;28;20028;-58
2022/08/06 03:00:33;;;;;;;3.97;2.28;;;;;;;11.34;72.13;102586.16;5020885;28;20030;-58
2022/08/06 03:03:01;;;;;;;3.78;2.38;;;;;;;11.26;72.11;102593.94;5016599;28;20116;-56
2022/08/06 03:05:28;;;;;;;9.30;2.75;;;;;;;11.22;72.29;102597.84;5020158;28;20030;-58
2022/08/06 03:07:55;;;;;;;5.05;2.47;;;;;;;11.18;72.57;102602.59;5015641;28;20555;-55
2022/08/06 03:10:25;;;;;;;5.82;2.50;;;;;;;11.32;72.90;102599.59;5019970;28;20047;-56
2022/08/06 03:12:52;;;;;;;6.88;2.65;;;;;;;11.38;73.20;102603.53;5019259;28;20511;-57
2022/08/06 03:15:18;;;;;;;9.32;2.72;;;;;;;11.48;73.63;102601.75;5021941;28;20040;-56
2022/08/06 03:17:45;;;;;;;5.68;2.75;;;;;;;11.53;73.62;102607.50;5014765;28;20036;-56
2022/08/06 03:20:14;;;;;;;5.50;2.67;;;;;;;11.55;73.52;102615.38;5023183;28;20040;-57
2022/08/06 03:22:40;;;;;;;5.47;2.22;;;;;;;11.42;73.38;102605.78;5024737;28;20043;-57
2022/08/06 03:25:07;;;;;;;8.68;2.75;;;;;;;11.38;73.08;102611.53;5023558;28;20112;-56
2022/08/06 03:27:34;;;;;;;5.47;2.47;;;;;;;11.27;73.03;102607.09;5024787;28;20013;-56
2022/08/06 03:30:00;;;;;;;5.40;2.47;;;;;;;11.25;73.30;102613.53;5018304;28;20037;-57
2022/08/06 03:32:25;;;;;;;4.35;2.55;;;;;;;11.22;73.85;102616.44;5021832;28;20588;-58
2022/08/06 03:34:52;;;;;;;11.30;2.70;;;;;;;11.12;73.71;102619.91;5018236;28;20022;-58
2022/08/06 03:37:19;;;;;;;5.30;2.70;;;;;;;11.09;74.00;102622.84;5019999;28;20064;-58
2022/08/06 03:39:46;;;;;;;6.90;2.40;;;;;;;11.05;73.71;102629.38;5015037;28;20049;-56
2022/08/06 03:42:11;;;;;;;4.47;2.40;;;;;;;10.96;73.75;102630.13;5014694;28;20105;-57
2022/08/06 03:44:36;;;;;;;7.07;2.75;;;;;;;10.88;73.55;102626.44;5022421;28;20585;-58
2022/08/06 03:47:07;;;;;;;6.05;2.60;;;;;;;10.81;74.07;102631.44;5024503;28;20467;-57
2022/08/06 03:49:37;;;;;;;5.72;2.63;;;;;;;10.72;74.12;102622.44;5023230;28;20017;-56
2022/08/06 03:52:04;;;;;;;6.13;2.75;;;;;;;10.77;74.46;102624.69;5015777;28;20490;-57
2022/08/06 03:54:34;;;;;;;5.90;2.70;;;;;;;10.74;74.87;102622.31;5020265;28;20026;-58
2022/08/06 03:57:12;;;;;;;11.15;2.50;;;;;;;10.72;74.65;102632.22;5018846;28;20047;-57
2022/08/06 03:59:41;;;;;;;12.90;2.60;;;;;;;10.60;74.10;102642.03;5021267;28;20060;-56
2022/08/06 04:02:08;;;;;;;5.60;2.70;;;;;;;10.66;74.41;102641.53;5013309;28;20280;-58
2022/08/06 04:04:35;;;;;;;7.43;2.80;;;;;;;10.64;75.02;102639.97;5020190;28;20101;-57
2022/08/06 04:07:01;;;;;;;6.78;2.63;;;;;;;10.58;75.34;102649.28;5014475;28;20438;-56
2022/08/06 04:09:29;;;;;;;5.45;2.60;;;;;;;10.55;75.26;102645.06;5022101;28;20482;-55
2022/08/06 04:11:55;;;;;;;6.55;2.67;;;;;;;10.59;75.31;102652.78;5018728;28;20025;-57
2022/08/06 04:14:22;;;;;;;5.75;2.58;;;;;;;10.54;75.13;102656.66;5018542;28;20108;-58
2022/08/06 04:16:48;;;;;;;7.53;2.60;;;;;;;10.46;74.75;102653.81;5017577;28;20036;-59
2022/08/06 04:19:18;;;;;;;5.55;2.58;;;;;;;10.53;75.02;102652.31;5021171;28;20034;-57
2022/08/06 04:21:43;;;;;;;6.35;2.70;;;;;;;10.49;75.41;102652.72;5022853;28;20041;-58
2022/08/06 04:24:09;;;;;;;8.52;2.80;;;;;;;10.47;75.53;102662.63;5019537;28;20034;-57
2022/08/06 04:26:36;;;;;;;4.28;2.40;;;;;;;10.42;75.80;102656.84;5023238;28;20104;-56
2022/08/06 04:29:03;;;;;;;6.22;2.90;;;;;;;10.46;75.92;102664.44;5019264;28;20026;-58
2022/08/06 04:31:29;;;;;;;7.30;3.33;;;;;;;10.41;76.01;102660.47;5019832;28;20083;-57
2022/08/06 04:33:56;;;;;;;6.70;2.92;;;;;;;10.41;75.89;102671.94;5013999;28;20025;-57
2022/08/06 04:36:22;;;;;;;7.00;3.30;;;;;;;10.43;76.43;102663.84;5023388;28;20029;-57
2022/08/06 04:38:48;;;;;;;8.02;3.40;;;;;;;10.37;76.52;102665.16;5020984;28;20083;-57
2022/08/06 04:41:14;;;;;;;6.65;2.95;;;;;;;10.37;76.37;102666.97;5018184;28;20030;-57
2022/08/06 04:43:40;;;;;;;5.95;2.70;;;;;;;10.43;76.51;102666.50;5013962;28;20025;-57
2022/08/06 04:46:07;;;;;;;7.15;2.88;;;;;;;10.42;76.50;102673.63;5020081;28;20411;-57
2022/08/06 04:48:33;;;;;;;9.32;3.10;;;;;;;10.49;76.59;102673.97;5017798;28;20040;-57
2022/08/06 04:51:02;;;;;;;6.20;2.65;;;;;;;10.47;76.58;102678.56;5019462;28;20441;-58
2022/08/06 04:53:27;;;;;;;5.20;2.83;;;;;;;10.57;76.42;102684.78;5026026;28;20037;-57
2022/08/06 04:55:52;;;;;;;7.10;3.00;;;;;;;10.56;76.35;102685.75;5020109;28;20044;-56
2022/08/06 04:58:17;;;;;;;7.03;3.13;;;;;;;10.62;76.58;102693.22;5021151;28;20074;-57
2022/08/06 05:00:47;;;;;;;8.13;3.35;;;;;;;10.65;76.51;102689.47;5025329;28;20025;-57
2022/08/06 05:03:13;;;;;;;8.55;3.38;;;;;;;10.71;76.75;102694.31;5025370;28;20021;-57
2022/08/06 05:05:44;;;;;;;7.60;3.10;;;;;;;10.75;76.94;102691.25;5020654;28;20498;-58
2022/08/06 05:08:11;;;;;;;8.25;2.90;;;;;;;10.83;76.86;102688.81;5020582;28;20028;-58
2022/08/06 05:11:03;;;;;;;5.43;3.03;;;;;;;10.89;76.86;102691.94;5020937;28;20091;-57
2022/08/06 05:13:32;;;;;;;8.68;3.45;;;;;;;10.96;76.74;102695.75;5024667;28;20041;-58
2022/08/06 05:16:02;;;;;;;12.07;4.05;;;;;;;11.05;76.74;102695.00;5021067;28;20030;-58
2022/08/06 05:18:36;;;;;;;6.68;3.30;;;;;;;11.11;77.27;102703.31;5024203;28;20398;-58
2022/08/06 05:21:03;;;;;;;9.15;3.85;;;;;;;11.21;77.62;102694.56;5019094;28;20410;-57
2022/08/06 05:23:35;;;;;;;7.97;3.40;;;;;;;11.27;77.75;102704.66;5019430;28;20200;-57
2022/08/06 05:26:01;;;;;;;8.63;3.63;;;;;;;11.32;78.10;102699.81;5017657;28;20514;-58
2022/08/06 05:28:26;;;;;;;6.60;3.80;;;;;;;11.35;78.24;102695.09;5026332;28;20013;-58
2022/08/06 05:30:52;;;;;;;5.85;3.75;;;;;;;11.45;78.46;102700.47;5028265;28;20436;-56
2022/08/06 05:33:37;;;;;;;9.13;4.10;;;;;;;11.57;78.78;102711.88;5021111;28;20025;-58
2022/08/06 05:36:05;;;;;;;8.27;3.70;;;;;;;11.64;78.79;102713.88;5022816;28;20028;-56
2022/08/06 05:38:36;;;;;;;6.75;3.63;;;;;;;11.69;79.11;102716.16;5020077;28;20547;-57
2022/08/06 05:41:01;;;;;;;8.25;3.90;;;;;;;11.73;79.19;102714.91;5025151;28;20029;-57
2022/08/06 05:43:27;;;;;;;9.40;3.88;;;;;;;11.86;79.43;102725.38;5020902;28;20102;-57
2022/08/06 05:45:57;;;;;;;11.32;4.40;;;;;;;11.94;79.32;102728.22;5028791;28;20021;-57
2022/08/06 05:48:24;;;;;;;10.35;3.78;;;;;;;12.01;79.72;102730.22;5019101;28;20069;-58
2022/08/06 05:50:54;;;;;;;9.23;4.07;;;;;;;12.11;79.76;102727.56;5024000;28;20116;-57
2022/08/06 05:53:29;;;;;;;7.47;4.18;;;;;;;12.20;80.13;102725.94;5021363;28;20034;-58
2022/08/06 05:55:59;;;;;;;10.23;4.55;;;;;;;12.27;79.97;102719.94;5021634;28;20025;-58
2022/08/06 05:58:33;;;;;;;8.27;4.07;;;;;;;12.33;80.03;102723.88;5019583;28;20033;-58
2022/08/06 06:01:02;;;;;;;11.98;4.43;;;;;;;12.38;79.90;102726.97;5019970;28;20076;-57
2022/08/06 06:03:28;;;;;;;10.57;4.22;;;;;;;12.43;80.16;102719.41;5020083;28;20426;-56
2022/08/06 06:05:55;;;;;;;27.20;17.52;;;;;;;12.48;80.17;102738.50;5019715;28;20037;-57
2022/08/06 06:08:21;;;;;;;15.05;10.27;;;;;;;12.57;80.17;102731.50;5024818;28;20390;-58
2022/08/06 06:10:47;;;;;;;10.15;4.60;;;;;;;12.67;80.34;102729.69;5019840;28;20471;-57
2022/08/06 06:13:14;;;;;;;11.77;4.70;;;;;;;12.73;80.80;102733.66;5015054;28;20030;-57
2022/08/06 06:15:43;;;;;;;7.05;4.35;;;;;;;12.84;80.83;102736.19;5022135;28;20072;-58
2022/08/06 06:18:09;;;;;;;;;;;;;;;12.93;80.52;102730.00;5024927;28;20120;-56
2022/08/06 06:20:45;;;;;;;14.07;8.57;;;;;;;12.98;80.34;102741.94;5021311;28;19967;-58
2022/08/06 06:23:19;;;;;;;9.73;6.13;;;;;;;13.09;80.67;102740.97;5015156;28;20538;-59
2022/08/06 06:26:01;;;;;;;16.67;10.05;;;;;;;13.20;80.76;102740.00;5018752;28;20025;-56
2022/08/06 06:28:42;;;;;;;11.00;3.97;;;;;;;13.31;80.58;102739.88;5020903;28;20597;-57
2022/08/06 06:31:14;;;;;;;8.50;4.47;;;;;;;13.43;80.32;102743.22;5012886;28;20040;-56
2022/08/06 06:33:52;;;;;;;10.02;4.32;;;;;;;13.56;80.83;102749.09;5019572;28;20036;-58
2022/08/06 06:36:29;;;;;;;9.23;4.07;;;;;;;13.67;80.63;102746.28;5020040;28;20065;-55
2022/08/06 06:39:10;;;;;;;9.00;3.97;;;;;;;13.78;80.58;102747.94;5016306;28;20516;-58
2022/08/06 06:41:47;;;;;;;8.07;3.72;;;;;;;13.89;80.31;102745.94;5021853;28;20486;-60
2022/08/06 06:44:23;;;;;;;12.25;4.10;;;;;;;14.02;79.97;102752.78;5006573;28;20485;-58
2022/08/06 06:47:00;;;;;;;8.43;3.78;;;;;;;14.12;80.13;102741.03;5015423;28;20029;-57
2022/08/06 06:49:31;;;;;;;11.90;3.78;;;;;;;14.30;79.96;102751.81;5012813;28;20038;-58
2022/08/06 06:52:12;;;;;;;9.32;3.10;;;;;;;14.41;79.94;102751.59;5015641;28;20140;-57
2022/08/06 06:54:47;;;;;;;11.63;3.67;;;;;;;14.52;79.30;102750.59;5015022;28;20109;-57
2022/08/06 06:57:19;;;;;;;6.00;3.10;;;;;;;14.62;78.88;102751.38;5012254;28;20032;-57
2022/08/06 06:59:48;;;;;;;4.35;2.50;;;;;;;14.71;78.29;102763.00;5020937;28;20060;-58
2022/08/06 07:02:19;;;;;;;10.48;3.08;;;;;;;14.82;78.47;102760.13;5017953;28;20026;-58
2022/08/06 07:04:47;;;;;;;8.55;2.80;;;;;;;14.91;77.74;102761.03;5016442;28;20059;-57
2022/08/06 07:07:13;;;;;;;7.88;2.22;;;;;;;14.98;77.49;102760.28;5012557;28;20566;-57
2022/08/06 07:09:40;;;;;;;8.30;2.55;;;;;;;15.06;76.57;102757.69;5016781;28;20029;-57
2022/08/06 07:12:06;;;;;;;41.13;21.48;;;;;;;15.16;76.48;102763.78;4996205;28;20030;-57
2022/08/06 07:14:34;;;;;;;9.35;2.53;;;;;;;15.24;75.91;102763.03;5015871;28;21044;-58
2022/08/06 07:17:02;;;;;;;7.70;2.78;;;;;;;15.33;75.31;102767.47;5014740;28;20029;-57
2022/08/06 07:19:28;;;;;;;8.43;2.50;;;;;;;15.46;75.60;102762.53;5016990;28;20026;-59
2022/08/06 07:21:54;;;;;;;4.95;1.35;;;;;;;15.56;74.69;102767.78;5011154;28;20046;-58
2022/08/06 07:24:23;;;;;;;4.82;1.23;;;;;;;15.67;73.93;102766.75;5018200;28;20422;-56
2022/08/06 07:26:50;;;;;;;4.63;1.10;;;;;;;15.76;72.84;102763.97;5015029;28;20487;-58
2022/08/06 07:29:16;;;;;;;4.75;1.15;;;;;;;15.84;72.07;102759.63;5014179;28;20022;-57
2022/08/06 07:31:42;;;;;;;4.68;1.30;;;;;;;15.99;71.88;102766.94;5024779;28;20091;-58
2022/08/06 07:34:09;;;;;;;6.80;1.10;;;;;;;16.14;71.38;102759.13;5021835;28;20086;-58
2022/08/06 07:36:41;;;;;;;6.10;1.23;;;;;;;16.27;70.91;102764.06;5021929;28;20100;-58
2022/08/06 07:39:10;;;;;;;3.22;1.00;;;;;;;16.41;70.69;102761.59;5011328;28;20030;-57
2022/08/06 07:41:36;;;;;;;3.22;0.98;;;;;;;16.41;70.11;102769.66;5022992;28;20018;-58
2022/08/06 07:44:03;;;;;;;6.53;1.10;;;;;;;16.50;69.24;102767.03;5019783;28;20033;-56
2022/08/06 07:46:33;;;;;;;14.75;9.93;;;;;;;16.60;69.08;102770.38;5023192;28;20017;-56
2022/08/06 07:49:03;;;;;;;7.60;1.20;;;;;;;16.65;67.91;102770.75;5021231;28;20014;-57
2022/08/06 07:51:32;;;;;;;4.25;1.02;;;;;;;16.72;67.49;102777.16;5017557;28;20022;-58
2022/08/06 07:53:58;;;;;;;2.97;1.00;;;;;;;16.84;66.88;102778.53;5017632;28;20061;-55
2022/08/06 07:56:25;;;;;;;5.03;1.00;;;;;;;16.92;66.54;102775.03;5030729;28;20025;-58
2022/08/06 07:58:52;;;;;;;5.03;0.90;;;;;;;16.94;65.64;102779.22;5017583;28;20022;-58
2022/08/06 08:01:18;;;;;;;4.13;0.88;;;;;;;17.00;65.28;102777.72;5020117;28;20065;-57
2022/08/06 08:06:29;;;;;;;3.83;0.90;;;;;;;17.11;64.74;102781.94;5017690;28;20052;-58
2022/08/06 08:08:58;;;;;;;6.32;2.30;;;;;;;17.21;64.16;102788.81;5013826;28;20018;-56
2022/08/06 08:11:25;;;;;;;4.93;1.35;;;;;;;17.26;63.71;102783.78;5017189;28;20033;-59
2022/08/06 08:13:55;;;;;;;5.57;2.22;;;;;;;17.31;63.66;102785.97;5013338;28;20014;-57
2022/08/06 08:16:21;;;;;;;6.78;2.72;;;;;;;17.33;62.54;102782.09;5018141;28;20040;-56
2022/08/06 08:18:47;;;;;;;2.80;1.02;;;;;;;17.31;62.39;102784.13;5017436;28;20030;-57
2022/08/06 08:21:13;;;;;;;2.30;0.77;;;;;;;17.33;61.80;102781.25;5023833;28;20663;-57
2022/08/06 08:23:40;;;;;;;3.10;1.00;;;;;;;17.39;61.74;102787.84;5019298;28;20025;-57
2022/08/06 08:26:06;;;;;;;3.92;1.20;;;;;;;17.42;60.86;102795.56;5021092;28;20582;-58
2022/08/06 08:28:32;;;;;;;2.85;0.90;;;;;;;17.51;61.60;102791.84;5021297;28;20478;-58
2022/08/06 08:31:01;;;;;;;4.75;1.17;;;;;;;17.58;61.08;102796.38;5022345;28;20040;-57
2022/08/06 08:33:27;;;;;;;2.88;1.13;;;;;;;17.63;60.15;102791.31;5019732;28;20025;-56
2022/08/06 08:35:53;;;;;;;3.20;1.08;;;;;;;17.76;60.51;102790.03;5029326;28;20052;-58
2022/08/06 08:38:18;;;;;;;1.83;0.88;;;;;;;17.79;59.24;102798.56;5020102;28;20470;-57
2022/08/06 08:40:44;;;;;;;2.55;0.80;;;;;;;17.82;58.39;102792.03;5027265;28;20030;-57
2022/08/06 08:43:16;;;;;;;4.53;1.35;;;;;;;17.79;58.49;102795.88;5021146;28;20029;-58
2022/08/06 08:45:43;;;;;;;6.25;2.85;;;;;;;17.83;58.37;102799.91;5024623;28;20431;-56
2022/08/06 08:48:10;;;;;;;3.05;1.10;;;;;;;17.84;57.88;102804.28;5019249;28;20025;-57
2022/08/06 08:50:37;;;;;;;4.53;1.13;;;;;;;17.85;57.61;102795.19;5029662;28;20315;-55
2022/08/06 08:53:07;;;;;;;1.92;0.68;;;;;;;17.91;56.75;102796.34;5017701;28;20093;-57
2022/08/06 08:55:32;;;;;;;4.05;0.85;;;;;;;18.05;56.90;102789.47;5025550;28;20029;-57
2022/08/06 08:57:58;;;;;;;4.97;1.02;;;;;;;18.16;56.25;102805.22;5025274;28;20114;-57
2022/08/06 09:00:24;;;;;;;6.57;2.83;;;;;;;18.32;55.87;102798.94;5024111;28;20029;-57
2022/08/06 09:02:51;;;;;;;4.97;1.70;;;;;;;18.44;55.03;102805.63;5011971;28;20595;-56
2022/08/06 09:05:17;;;;;;;3.28;1.05;;;;;;;18.50;54.81;102811.16;5026541;28;20029;-58
2022/08/06 09:07:43;;;;;;;6.25;0.98;;;;;;;18.49;54.80;102812.16;5025371;28;20033;-57
2022/08/06 09:10:10;;;;;;;2.83;0.77;;;;;;;18.52;53.48;102810.97;5025706;28;20039;-56
2022/08/06 09:12:35;;;;;;;2.95;0.80;;;;;;;18.52;53.00;102808.28;5027032;28;20048;-54
2022/08/06 09:15:02;;;;;;;4.07;0.90;;;;;;;18.63;52.98;102817.84;5019781;28;20030;-55
2022/08/06 09:17:29;;;;;;;2.97;0.80;;;;;;;18.76;53.20;102810.03;5020928;28;20090;-58
2022/08/06 09:19:55;;;;;;;3.55;0.70;;;;;;;18.98;52.61;102813.78;5022964;28;20060;-57
2022/08/06 09:22:20;;;;;;;4.97;0.75;;;;;;;19.05;51.48;102809.34;5021944;28;20061;-55
2022/08/06 09:24:45;;;;;;;1.92;0.50;;;;;;;19.14;50.96;102814.53;5025027;28;20022;-55
2022/08/06 09:27:16;;;;;;;7.63;0.90;;;;;;;19.27;50.73;102811.22;5020215;28;20129;-57
2022/08/06 09:29:48;;;;;;;2.78;0.80;;;;;;;19.19;51.09;102820.22;5026084;28;20752;-56
2022/08/06 09:32:41;;;;;;;2.03;0.70;;;;;;;19.19;51.46;102814.81;5025903;28;20033;-57
2022/08/06 09:35:23;;;;;;;3.28;0.80;;;;;;;19.29;51.80;102814.56;5023874;28;20044;-57
2022/08/06 09:37:58;;;;;;;4.45;2.22;;;;;;;19.53;50.59;102820.78;5017480;28;20038;-57
2022/08/06 09:40:24;;;;;;;4.80;1.13;;;;;;;19.58;49.41;102818.41;5016316;28;20021;-57
2022/08/06 09:42:50;;;;;;;5.10;2.00;;;;;;;19.62;49.90;102815.16;5021200;28;20540;-58
2022/08/06 09:45:17;;;;;;;2.35;1.45;;;;;;;19.68;50.21;102816.31;5017379;28;20025;-58
2022/08/06 09:47:47;;;;;;;2.83;0.70;;;;;;;19.74;50.44;102820.97;5018818;28;20031;-58
2022/08/06 09:50:13;;;;;;;3.17;0.73;;;;;;;19.75;50.23;102823.50;5016536;28;20060;-57
2022/08/06 09:52:38;;;;;;;3.63;0.85;;;;;;;19.89;49.52;102832.63;5023665;28;20061;-60
2022/08/06 09:55:04;;;;;;;2.70;0.80;;;;;;;20.03;49.11;102822.88;5027723;28;20108;-58
2022/08/06 09:57:46;;;;;;;1.70;0.70;;;;;;;20.14;48.05;102825.09;5026775;28;20468;-57
2022/08/06 10:00:26;;;;;;;1.65;0.57;;;;;;;20.01;46.65;102825.78;5024900;28;20112;-55
2022/08/06 10:02:56;;;;;;;3.15;0.80;;;;;;;20.20;47.08;102826.22;5007730;28;20084;-56
2022/08/06 10:05:23;;;;;;;2.38;0.73;;;;;;;20.50;48.02;102825.22;5019064;28;20029;-59
2022/08/06 10:08:21;;;;;;;4.20;1.92;;;;;;;20.92;47.74;102823.66;5005836;28;20056;-58
2022/08/06 10:10:51;;;;;;;4.13;0.70;;;;;;;21.32;47.37;102819.53;5015710;28;20426;-59
2022/08/06 10:13:26;;;;;;;1.63;0.60;;;;;;;21.29;46.53;102818.06;5018752;28;20030;-59
2022/08/06 10:15:53;;;;;;;7.22;0.70;;;;;;;21.36;45.01;102814.56;5017867;28;20029;-57
2022/08/06 10:18:37;;;;;;;3.55;0.60;;;;;;;21.46;45.27;102820.50;5025110;28;20034;-58
2022/08/06 10:21:05;;;;;;;4.95;0.80;;;;;;;21.30;44.48;102813.47;5018425;28;20060;-57
2022/08/06 10:23:33;;;;;;;8.20;0.93;;;;;;;21.19;44.64;102813.97;5014891;28;20026;-57
2022/08/06 10:25:58;;;;;;;3.53;0.73;;;;;;;21.11;43.91;102814.94;5018763;28;20057;-57
2022/08/06 10:28:26;;;;;;;2.13;0.80;;;;;;;21.21;45.31;102811.91;5019858;28;20021;-57
2022/08/06 10:30:53;;;;;;;2.13;0.60;;;;;;;21.28;44.94;102805.56;5022343;28;20605;-57
2022/08/06 10:33:19;;;;;;;4.45;0.80;;;;;;;21.15;43.20;102802.72;5014511;28;20113;-58
2022/08/06 10:35:47;;;;;;;12.43;7.78;;;;;;;21.42;44.41;102794.88;5017645;28;20030;-57
2022/08/06 10:38:19;;;;;;;7.85;3.95;;;;;;;21.51;44.22;102796.41;5016694;28;20025;-56
2022/08/06 10:40:50;;;;;;;2.05;0.70;;;;;;;21.52;43.91;102800.78;5014994;28;20025;-58
2022/08/06 10:43:17;;;;;;;1.58;0.65;;;;;;;21.68;44.39;102795.06;5014115;28;20021;-55
2022/08/06 10:45:42;;;;;;;2.13;0.70;;;;;;;21.69;43.29;102787.84;5017108;28;20060;-56
2022/08/06 10:48:08;;;;;;;3.08;0.80;;;;;;;21.89;43.58;102783.38;5013146;28;20048;-60
2022/08/06 10:50:34;;;;;;;2.63;0.70;;;;;;;22.22;44.10;102792.53;5015605;28;20022;-59
2022/08/06 10:53:01;;;;;;;1.60;0.50;;;;;;;22.22;42.16;102794.41;5013236;28;21423;-57
2022/08/06 10:55:29;;;;;;;2.33;0.75;;;;;;;22.08;38.91;102781.88;5016353;28;20105;-58
2022/08/06 10:57:55;;;;;;;2.22;0.80;;;;;;;22.28;40.21;102784.69;5011844;28;20040;-58
2022/08/06 11:00:21;;;;;;;1.30;0.50;;;;;;;22.46;39.79;102782.25;5013224;28;20036;-58
2022/08/06 11:03:09;;;;;;;1.48;0.70;;;;;;;22.71;39.40;102787.97;5017186;28;20029;-55
2022/08/06 11:05:38;;;;;;;2.35;0.70;;;;;;;22.81;39.42;102789.25;5016256;28;20036;-55
2022/08/06 11:08:37;;;;;;;1.30;0.60;;;;;;;22.98;39.04;102784.31;5016025;28;20079;-56
2022/08/06 11:11:11;;;;;;;1.35;0.70;;;;;;;23.27;39.27;102782.28;5014507;28;20120;-59
2022/08/06 11:13:58;;;;;;;0.60;0.52;;;;;;;23.40;38.24;102779.53;5014789;28;20029;-57
2022/08/06 11:16:25;;;;;;;1.77;0.55;;;;;;;23.31;37.62;102783.53;5016483;28;20402;-57
2022/08/06 11:18:58;;;;;;;2.08;0.80;;;;;;;23.26;37.14;102778.72;5012686;28;20018;-58
2022/08/06 11:21:46;;;;;;;1.52;0.70;;;;;;;22.89;37.05;102780.13;5018917;28;20032;-57
2022/08/06 11:24:13;;;;;;;5.90;2.65;;;;;;;22.53;38.45;102773.09;5016850;28;20033;-58
2022/08/06 11:26:42;;;;;;;2.58;0.70;;;;;;;22.53;39.04;102778.53;5023630;28;20056;-58
2022/08/06 11:29:08;;;;;;;;;;;;;;;22.71;39.50;102777.13;5013793;28;20606;-58
2022/08/06 11:31:35;;;;;;;3.33;0.90;;;;;;;22.75;39.68;102773.81;5019735;28;20011;-57
2022/08/06 11:34:10;;;;;;;1.98;0.70;;;;;;;22.97;39.80;102770.97;5010099;28;20033;-58
2022/08/06 11:36:45;;;;;;;6.28;3.70;;;;;;;23.25;39.36;102768.94;5019470;28;20033;-59